sensor_id;sensor_type;location;lat;lon;timestamp;temperature;humidity
24450;DHT22;13349;50.984;5.822;2023-02-28T00:00:25;-1.30;99.90
24450;DHT22;13349;50.984;5.822;2023-02-28T00:02:53;-1.40;99.90
24450;DHT22;13349;50.984;5.822;2023-02-28T00:05:21;-1.40;99.90
24450;DHT22;13349;50.984;5.822;2023-02-28T00:07:49;-1.50;99.90
24450;DHT22;13349;50.984;5.822;2023-02-28T00:10:17;-1.40;99.90
24450;DHT22;13349;50.984;5.822;2023-02-28T00:12:46;-1.30;99.90
24450;DHT22;13349;50.984;5.822;2023-02-28T00:15:13;-1.30;1.00
24450;DHT22;13349;50.984;5.822;2023-02-28T00:17:40;-1.10;1.00
24450;DHT22;13349;50.984;5.822;2023-02-28T00:20:09;-1.00;1.00
24450;DHT22;13349;50.984;5.822;2023-02-28T00:22:37;-0.90;1.00
24450;DHT22;13349;50.984;5.822;2023-02-28T00:25:05;-0.90;1.00
24450;DHT22;13349;50.984;5.822;2023-02-28T00:27:33;-0.90;1.00
24450;DHT22;13349;50.984;5.822;2023-02-28T00:30:00;-0.90;1.00
24450;DHT22;13349;50.984;5.822;2023-02-28T00:32:26;-0.80;1.00
24450;DHT22;13349;50.984;5.822;2023-02-28T00:34:53;-0.90;1.00
24450;DHT22;13349;50.984;5.822;2023-02-28T00:37:22;-0.90;1.00
24450;DHT22;13349;50.984;5.822;2023-02-28T00:39:49;-0.90;1.00
24450;DHT22;13349;50.984;5.822;2023-02-28T00:42:16;-1.00;1.00
24450;DHT22;13349;50.984;5.822;2023-02-28T00:44:43;-1.20;1.00
24450;DHT22;13349;50.984;5.822;2023-02-28T00:47:10;-1.20;1.00
24450;DHT22;13349;50.984;5.822;2023-02-28T00:49:37;-1.10;1.00
24450;DHT22;13349;50.984;5.822;2023-02-28T00:52:03;-1.30;1.00
24450;DHT22;13349;50.984;5.822;2023-02-28T00:54:32;-1.40;1.00
24450;DHT22;13349;50.984;5.822;2023-02-28T00:56:59;-1.60;1.00
24450;DHT22;13349;50.984;5.822;2023-02-28T00:59:26;-1.70;1.00
24450;DHT22;13349;50.984;5.822;2023-02-28T01:01:53;-1.80;1.00
24450;DHT22;13349;50.984;5.822;2023-02-28T01:04:20;-1.80;1.00
24450;DHT22;13349;50.984;5.822;2023-02-28T01:06:47;-1.80;1.00
24450;DHT22;13349;50.984;5.822;2023-02-28T01:09:14;-1.80;1.00
24450;DHT22;13349;50.984;5.822;2023-02-28T01:11:42;-1.80;1.00
24450;DHT22;13349;50.984;5.822;2023-02-28T01:14:11;-1.90;1.00
24450;DHT22;13349;50.984;5.822;2023-02-28T01:16:38;-2.00;1.00
24450;DHT22;13349;50.984;5.822;2023-02-28T01:19:05;-2.00;1.00
24450;DHT22;13349;50.984;5.822;2023-02-28T01:21:32;-2.00;1.00
24450;DHT22;13349;50.984;5.822;2023-02-28T01:24:00;-2.10;1.00
24450;DHT22;13349;50.984;5.822;2023-02-28T01:26:27;-2.10;1.00
24450;DHT22;13349;50.984;5.822;2023-02-28T01:28:55;-2.00;1.00
24450;DHT22;13349;50.984;5.822;2023-02-28T01:31:23;-2.00;31.20
24450;DHT22;13349;50.984;5.822;2023-02-28T01:33:50;-2.00;95.00
24450;DHT22;13349;50.984;5.822;2023-02-28T01:36:18;-2.00;99.90
24450;DHT22;13349;50.984;5.822;2023-02-28T01:38:46;-2.10;99.90
24450;DHT22;13349;50.984;5.822;2023-02-28T01:41:14;-2.00;99.90
24450;DHT22;13349;50.984;5.822;2023-02-28T01:43:59;-2.00;99.90
24450;DHT22;13349;50.984;5.822;2023-02-28T01:46:28;-2.10;99.90
24450;DHT22;13349;50.984;5.822;2023-02-28T01:48:56;-2.20;99.90
24450;DHT22;13349;50.984;5.822;2023-02-28T01:51:26;-2.20;99.90
24450;DHT22;13349;50.984;5.822;2023-02-28T01:53:54;-2.20;99.90
24450;DHT22;13349;50.984;5.822;2023-02-28T01:56:24;-2.20;99.90
24450;DHT22;13349;50.984;5.822;2023-02-28T01:58:52;-2.20;1.00
24450;DHT22;13349;50.984;5.822;2023-02-28T02:01:21;-2.20;1.00
24450;DHT22;13349;50.984;5.822;2023-02-28T02:03:49;-2.30;1.00
24450;DHT22;13349;50.984;5.822;2023-02-28T02:06:20;-2.30;1.00
24450;DHT22;13349;50.984;5.822;2023-02-28T02:08:47;-2.30;1.00
24450;DHT22;13349;50.984;5.822;2023-02-28T02:11:14;-2.30;1.00
24450;DHT22;13349;50.984;5.822;2023-02-28T02:13:48;-2.40;1.00
24450;DHT22;13349;50.984;5.822;2023-02-28T02:16:28;-2.40;1.00
24450;DHT22;13349;50.984;5.822;2023-02-28T02:18:59;-2.50;1.00
24450;DHT22;13349;50.984;5.822;2023-02-28T02:21:44;-2.40;1.00
24450;DHT22;13349;50.984;5.822;2023-02-28T02:24:26;-2.50;1.00
24450;DHT22;13349;50.984;5.822;2023-02-28T02:27:03;-2.50;1.00
24450;DHT22;13349;50.984;5.822;2023-02-28T02:35:13;-2.80;1.00
24450;DHT22;13349;50.984;5.822;2023-02-28T02:37:43;-3.00;1.00
24450;DHT22;13349;50.984;5.822;2023-02-28T02:40:15;-2.90;1.00
24450;DHT22;13349;50.984;5.822;2023-02-28T02:42:45;-3.20;1.00
24450;DHT22;13349;50.984;5.822;2023-02-28T02:45:14;-3.30;1.00
24450;DHT22;13349;50.984;5.822;2023-02-28T02:47:43;-3.40;1.00
24450;DHT22;13349;50.984;5.822;2023-02-28T02:50:11;-3.40;99.90
24450;DHT22;13349;50.984;5.822;2023-02-28T02:52:42;-3.20;99.90
24450;DHT22;13349;50.984;5.822;2023-02-28T02:55:10;-3.20;99.90
24450;DHT22;13349;50.984;5.822;2023-02-28T02:57:40;-3.30;1.00
24450;DHT22;13349;50.984;5.822;2023-02-28T03:00:11;-3.20;1.00
24450;DHT22;13349;50.984;5.822;2023-02-28T03:02:38;-3.20;1.00
24450;DHT22;13349;50.984;5.822;2023-02-28T03:05:08;-3.20;1.00
24450;DHT22;13349;50.984;5.822;2023-02-28T03:07:35;-3.20;1.00
24450;DHT22;13349;50.984;5.822;2023-02-28T03:12:47;-3.30;1.00
24450;DHT22;13349;50.984;5.822;2023-02-28T03:15:16;-3.40;36.40
24450;DHT22;13349;50.984;5.822;2023-02-28T03:20:35;-3.00;99.90
24450;DHT22;13349;50.984;5.822;2023-02-28T03:23:07;-2.90;1.00
24450;DHT22;13349;50.984;5.822;2023-02-28T03:25:38;-2.80;1.00
24450;DHT22;13349;50.984;5.822;2023-02-28T03:28:11;-2.70;1.00
24450;DHT22;13349;50.984;5.822;2023-02-28T03:30:44;-2.80;1.00
24450;DHT22;13349;50.984;5.822;2023-02-28T03:33:14;-2.80;1.00
24450;DHT22;13349;50.984;5.822;2023-02-28T03:35:43;-2.80;1.00
24450;DHT22;13349;50.984;5.822;2023-02-28T03:38:13;-2.90;1.00
24450;DHT22;13349;50.984;5.822;2023-02-28T03:40:43;-2.60;1.00
24450;DHT22;13349;50.984;5.822;2023-02-28T03:43:14;-2.60;34.70
24450;DHT22;13349;50.984;5.822;2023-02-28T03:45:43;-2.40;99.90
24450;DHT22;13349;50.984;5.822;2023-02-28T03:48:13;-2.30;99.90
24450;DHT22;13349;50.984;5.822;2023-02-28T03:50:41;-2.10;99.90
24450;DHT22;13349;50.984;5.822;2023-02-28T03:53:10;-1.90;1.00
24450;DHT22;13349;50.984;5.822;2023-02-28T03:55:39;-1.90;1.00
24450;DHT22;13349;50.984;5.822;2023-02-28T03:58:09;-1.80;1.00
24450;DHT22;13349;50.984;5.822;2023-02-28T04:00:39;-1.80;99.90
24450;DHT22;13349;50.984;5.822;2023-02-28T04:03:07;-1.90;99.90
24450;DHT22;13349;50.984;5.822;2023-02-28T04:05:40;-2.00;99.90
24450;DHT22;13349;50.984;5.822;2023-02-28T04:08:12;-2.10;48.20
24450;DHT22;13349;50.984;5.822;2023-02-28T04:10:39;-2.20;1.00
24450;DHT22;13349;50.984;5.822;2023-02-28T04:13:08;-2.30;1.00
24450;DHT22;13349;50.984;5.822;2023-02-28T04:15:35;-2.40;1.00
24450;DHT22;13349;50.984;5.822;2023-02-28T04:18:04;-2.50;1.00
24450;DHT22;13349;50.984;5.822;2023-02-28T04:20:31;-2.60;1.00
24450;DHT22;13349;50.984;5.822;2023-02-28T04:22:58;-2.70;1.00
24450;DHT22;13349;50.984;5.822;2023-02-28T04:25:25;-2.80;1.00
24450;DHT22;13349;50.984;5.822;2023-02-28T04:27:51;-2.70;1.00
24450;DHT22;13349;50.984;5.822;2023-02-28T04:30:18;-2.80;1.00
24450;DHT22;13349;50.984;5.822;2023-02-28T04:32:45;-2.80;33.60
24450;DHT22;13349;50.984;5.822;2023-02-28T04:35:14;-2.80;99.90
24450;DHT22;13349;50.984;5.822;2023-02-28T04:37:41;-2.90;99.90
24450;DHT22;13349;50.984;5.822;2023-02-28T04:40:08;-2.90;99.90
24450;DHT22;13349;50.984;5.822;2023-02-28T04:42:35;-3.00;99.90
24450;DHT22;13349;50.984;5.822;2023-02-28T04:45:03;-2.90;1.00
24450;DHT22;13349;50.984;5.822;2023-02-28T04:47:30;-2.90;1.00
24450;DHT22;13349;50.984;5.822;2023-02-28T04:49:57;-3.00;1.00
24450;DHT22;13349;50.984;5.822;2023-02-28T04:52:26;-3.10;1.00
24450;DHT22;13349;50.984;5.822;2023-02-28T04:54:53;-3.10;1.00
24450;DHT22;13349;50.984;5.822;2023-02-28T04:57:20;-3.10;1.00
24450;DHT22;13349;50.984;5.822;2023-02-28T04:59:47;-3.10;1.00
24450;DHT22;13349;50.984;5.822;2023-02-28T05:02:14;-3.10;63.60
24450;DHT22;13349;50.984;5.822;2023-02-28T05:04:41;-3.10;99.90
24450;DHT22;13349;50.984;5.822;2023-02-28T05:07:08;-3.10;99.90
24450;DHT22;13349;50.984;5.822;2023-02-28T05:09:36;-3.10;1.00
24450;DHT22;13349;50.984;5.822;2023-02-28T05:12:03;-2.80;1.00
24450;DHT22;13349;50.984;5.822;2023-02-28T05:14:30;-2.80;1.00
24450;DHT22;13349;50.984;5.822;2023-02-28T05:16:57;-2.90;1.00
24450;DHT22;13349;50.984;5.822;2023-02-28T05:19:24;-2.80;20.50
24450;DHT22;13349;50.984;5.822;2023-02-28T05:21:51;-2.70;99.90
24450;DHT22;13349;50.984;5.822;2023-02-28T05:24:18;-2.70;99.90
24450;DHT22;13349;50.984;5.822;2023-02-28T05:26:50;-2.70;99.90
24450;DHT22;13349;50.984;5.822;2023-02-28T05:29:18;-2.70;99.90
24450;DHT22;13349;50.984;5.822;2023-02-28T05:31:45;-2.90;99.90
24450;DHT22;13349;50.984;5.822;2023-02-28T05:34:12;-3.00;1.00
24450;DHT22;13349;50.984;5.822;2023-02-28T05:36:41;-3.10;1.00
24450;DHT22;13349;50.984;5.822;2023-02-28T05:39:08;-3.20;1.00
24450;DHT22;13349;50.984;5.822;2023-02-28T05:41:41;-3.20;1.00
24450;DHT22;13349;50.984;5.822;2023-02-28T05:44:09;-3.30;1.00
24450;DHT22;13349;50.984;5.822;2023-02-28T05:46:37;-3.40;1.00
24450;DHT22;13349;50.984;5.822;2023-02-28T05:49:04;-3.40;60.30
24450;DHT22;13349;50.984;5.822;2023-02-28T05:51:31;-3.40;99.90
24450;DHT22;13349;50.984;5.822;2023-02-28T05:53:59;-3.40;99.90
24450;DHT22;13349;50.984;5.822;2023-02-28T05:56:27;-3.40;99.90
24450;DHT22;13349;50.984;5.822;2023-02-28T05:58:54;-3.40;1.00
24450;DHT22;13349;50.984;5.822;2023-02-28T06:01:23;-3.50;1.00
24450;DHT22;13349;50.984;5.822;2023-02-28T06:03:51;-3.40;1.00
24450;DHT22;13349;50.984;5.822;2023-02-28T06:06:18;-3.40;1.00
24450;DHT22;13349;50.984;5.822;2023-02-28T06:08:44;-3.40;22.80
24450;DHT22;13349;50.984;5.822;2023-02-28T06:11:11;-3.40;73.50
24450;DHT22;13349;50.984;5.822;2023-02-28T06:13:38;-3.30;99.90
24450;DHT22;13349;50.984;5.822;2023-02-28T06:16:05;-3.30;99.90
24450;DHT22;13349;50.984;5.822;2023-02-28T06:18:34;-3.20;99.90
24450;DHT22;13349;50.984;5.822;2023-02-28T06:21:01;-3.10;99.90
24450;DHT22;13349;50.984;5.822;2023-02-28T06:23:27;-3.10;99.90
24450;DHT22;13349;50.984;5.822;2023-02-28T06:25:54;-3.00;1.00
24450;DHT22;13349;50.984;5.822;2023-02-28T06:28:23;-3.00;1.00
24450;DHT22;13349;50.984;5.822;2023-02-28T06:30:50;-3.00;99.90
24450;DHT22;13349;50.984;5.822;2023-02-28T06:33:17;-2.90;1.00
24450;DHT22;13349;50.984;5.822;2023-02-28T06:35:47;-2.80;1.00
24450;DHT22;13349;50.984;5.822;2023-02-28T06:38:16;-2.90;99.90
24450;DHT22;13349;50.984;5.822;2023-02-28T06:40:43;-2.90;38.90
24450;DHT22;13349;50.984;5.822;2023-02-28T06:43:10;-2.90;1.00
24450;DHT22;13349;50.984;5.822;2023-02-28T06:45:41;-3.00;1.00
24450;DHT22;13349;50.984;5.822;2023-02-28T06:48:08;-3.00;1.00
24450;DHT22;13349;50.984;5.822;2023-02-28T06:50:35;-3.00;99.90
24450;DHT22;13349;50.984;5.822;2023-02-28T06:53:04;-3.10;1.00
24450;DHT22;13349;50.984;5.822;2023-02-28T06:55:30;-3.00;1.00
24450;DHT22;13349;50.984;5.822;2023-02-28T06:57:57;-3.00;1.00
24450;DHT22;13349;50.984;5.822;2023-02-28T07:00:24;-3.00;1.00
24450;DHT22;13349;50.984;5.822;2023-02-28T07:02:51;-2.90;1.00
24450;DHT22;13349;50.984;5.822;2023-02-28T07:05:20;-2.80;1.00
24450;DHT22;13349;50.984;5.822;2023-02-28T07:07:47;-2.70;1.00
24450;DHT22;13349;50.984;5.822;2023-02-28T07:10:15;-2.40;4.30
24450;DHT22;13349;50.984;5.822;2023-02-28T07:12:42;-2.30;1.00
24450;DHT22;13349;50.984;5.822;2023-02-28T07:15:10;-2.30;1.00
24450;DHT22;13349;50.984;5.822;2023-02-28T07:17:37;-2.30;99.90
24450;DHT22;13349;50.984;5.822;2023-02-28T07:20:04;-2.20;99.90
24450;DHT22;13349;50.984;5.822;2023-02-28T07:22:31;-2.30;1.00
24450;DHT22;13349;50.984;5.822;2023-02-28T07:24:58;-2.20;1.00
24450;DHT22;13349;50.984;5.822;2023-02-28T07:27:26;-2.10;1.00
24450;DHT22;13349;50.984;5.822;2023-02-28T07:29:53;-2.00;1.00
24450;DHT22;13349;50.984;5.822;2023-02-28T07:32:20;-1.90;1.00
24450;DHT22;13349;50.984;5.822;2023-02-28T07:34:47;-1.80;1.00
24450;DHT22;13349;50.984;5.822;2023-02-28T07:37:14;-1.70;99.90
24450;DHT22;13349;50.984;5.822;2023-02-28T07:39:41;-1.60;99.90
24450;DHT22;13349;50.984;5.822;2023-02-28T07:42:08;-1.40;41.50
24450;DHT22;13349;50.984;5.822;2023-02-28T07:44:38;-1.30;1.00
24450;DHT22;13349;50.984;5.822;2023-02-28T07:47:06;-1.20;1.00
24450;DHT22;13349;50.984;5.822;2023-02-28T07:49:33;-1.10;1.00
24450;DHT22;13349;50.984;5.822;2023-02-28T07:52:00;-0.90;1.00
24450;DHT22;13349;50.984;5.822;2023-02-28T07:54:27;-0.70;99.90
24450;DHT22;13349;50.984;5.822;2023-02-28T07:56:54;-0.50;99.90
24450;DHT22;13349;50.984;5.822;2023-02-28T07:59:21;-0.40;1.00
24450;DHT22;13349;50.984;5.822;2023-02-28T08:01:49;-0.30;1.00
24450;DHT22;13349;50.984;5.822;2023-02-28T08:04:16;0.00;1.00
24450;DHT22;13349;50.984;5.822;2023-02-28T08:06:43;0.50;1.00
24450;DHT22;13349;50.984;5.822;2023-02-28T08:09:10;1.00;99.90
24450;DHT22;13349;50.984;5.822;2023-02-28T08:11:37;1.30;99.90
24450;DHT22;13349;50.984;5.822;2023-02-28T08:14:04;1.60;1.00
24450;DHT22;13349;50.984;5.822;2023-02-28T08:16:31;1.70;1.00
24450;DHT22;13349;50.984;5.822;2023-02-28T08:18:59;1.60;99.90
24450;DHT22;13349;50.984;5.822;2023-02-28T08:21:26;1.40;99.90
24450;DHT22;13349;50.984;5.822;2023-02-28T08:23:53;1.40;1.00
24450;DHT22;13349;50.984;5.822;2023-02-28T08:26:22;1.40;1.00
24450;DHT22;13349;50.984;5.822;2023-02-28T08:28:49;1.40;1.00
24450;DHT22;13349;50.984;5.822;2023-02-28T08:31:16;1.50;1.00
24450;DHT22;13349;50.984;5.822;2023-02-28T08:33:43;1.60;1.00
24450;DHT22;13349;50.984;5.822;2023-02-28T08:36:12;1.80;99.90
24450;DHT22;13349;50.984;5.822;2023-02-28T08:38:40;2.00;99.90
24450;DHT22;13349;50.984;5.822;2023-02-28T08:41:09;1.90;99.90
24450;DHT22;13349;50.984;5.822;2023-02-28T08:43:36;1.80;99.90
24450;DHT22;13349;50.984;5.822;2023-02-28T08:46:03;1.60;1.00
24450;DHT22;13349;50.984;5.822;2023-02-28T08:48:31;1.70;1.00
24450;DHT22;13349;50.984;5.822;2023-02-28T08:50:59;1.70;1.00
24450;DHT22;13349;50.984;5.822;2023-02-28T08:53:28;1.80;1.00
24450;DHT22;13349;50.984;5.822;2023-02-28T08:55:55;1.80;1.00
24450;DHT22;13349;50.984;5.822;2023-02-28T08:58:22;2.10;1.00
24450;DHT22;13349;50.984;5.822;2023-02-28T09:00:50;2.30;1.00
24450;DHT22;13349;50.984;5.822;2023-02-28T09:03:16;2.60;1.00
24450;DHT22;13349;50.984;5.822;2023-02-28T09:05:51;2.70;1.00
24450;DHT22;13349;50.984;5.822;2023-02-28T09:08:18;3.10;1.00
24450;DHT22;13349;50.984;5.822;2023-02-28T09:10:46;3.50;1.00
24450;DHT22;13349;50.984;5.822;2023-02-28T09:13:13;3.50;99.90
24450;DHT22;13349;50.984;5.822;2023-02-28T09:15:40;3.80;99.90
24450;DHT22;13349;50.984;5.822;2023-02-28T09:18:07;4.30;99.90
24450;DHT22;13349;50.984;5.822;2023-02-28T09:20:34;4.60;99.90
24450;DHT22;13349;50.984;5.822;2023-02-28T09:23:01;4.60;99.90
24450;DHT22;13349;50.984;5.822;2023-02-28T09:25:27;4.70;99.90
24450;DHT22;13349;50.984;5.822;2023-02-28T09:27:56;4.60;99.90
24450;DHT22;13349;50.984;5.822;2023-02-28T09:30:23;4.70;99.90
24450;DHT22;13349;50.984;5.822;2023-02-28T09:32:49;4.80;48.70
24450;DHT22;13349;50.984;5.822;2023-02-28T09:35:17;4.50;2.10
24450;DHT22;13349;50.984;5.822;2023-02-28T09:37:44;4.50;1.00
24450;DHT22;13349;50.984;5.822;2023-02-28T09:40:12;4.60;1.00
24450;DHT22;13349;50.984;5.822;2023-02-28T09:42:40;4.70;1.00
24450;DHT22;13349;50.984;5.822;2023-02-28T09:45:11;4.90;1.00
24450;DHT22;13349;50.984;5.822;2023-02-28T09:47:43;5.30;1.00
24450;DHT22;13349;50.984;5.822;2023-02-28T09:50:13;5.50;1.00
24450;DHT22;13349;50.984;5.822;2023-02-28T09:52:42;5.30;1.00
24450;DHT22;13349;50.984;5.822;2023-02-28T09:55:17;5.00;1.00
24450;DHT22;13349;50.984;5.822;2023-02-28T09:57:45;5.30;1.00
24450;DHT22;13349;50.984;5.822;2023-02-28T10:00:15;5.10;1.00
24450;DHT22;13349;50.984;5.822;2023-02-28T10:02:53;5.10;1.00
24450;DHT22;13349;50.984;5.822;2023-02-28T10:05:24;5.10;1.00
24450;DHT22;13349;50.984;5.822;2023-02-28T10:07:57;5.20;1.00
24450;DHT22;13349;50.984;5.822;2023-02-28T10:10:28;5.40;1.00
24450;DHT22;13349;50.984;5.822;2023-02-28T10:12:57;5.30;1.00
24450;DHT22;13349;50.984;5.822;2023-02-28T10:15:27;5.40;1.00
24450;DHT22;13349;50.984;5.822;2023-02-28T10:17:57;5.50;1.00
24450;DHT22;13349;50.984;5.822;2023-02-28T10:20:24;5.50;1.00
24450;DHT22;13349;50.984;5.822;2023-02-28T10:22:57;5.70;1.00
24450;DHT22;13349;50.984;5.822;2023-02-28T10:25:26;5.70;1.00
24450;DHT22;13349;50.984;5.822;2023-02-28T10:27:53;5.90;1.00
24450;DHT22;13349;50.984;5.822;2023-02-28T10:30:21;6.10;1.00
24450;DHT22;13349;50.984;5.822;2023-02-28T10:32:50;6.20;1.00
24450;DHT22;13349;50.984;5.822;2023-02-28T10:35:19;5.70;1.00
24450;DHT22;13349;50.984;5.822;2023-02-28T10:37:47;5.70;1.00
24450;DHT22;13349;50.984;5.822;2023-02-28T10:40:26;5.90;1.00
24450;DHT22;13349;50.984;5.822;2023-02-28T10:42:56;6.30;1.00
24450;DHT22;13349;50.984;5.822;2023-02-28T10:45:23;6.20;1.00
24450;DHT22;13349;50.984;5.822;2023-02-28T10:47:53;6.00;1.00
24450;DHT22;13349;50.984;5.822;2023-02-28T10:50:29;5.80;1.00
24450;DHT22;13349;50.984;5.822;2023-02-28T10:53:05;5.90;1.00
24450;DHT22;13349;50.984;5.822;2023-02-28T10:55:34;6.10;1.00
24450;DHT22;13349;50.984;5.822;2023-02-28T10:58:01;6.00;1.00
24450;DHT22;13349;50.984;5.822;2023-02-28T11:00:31;6.00;1.00
24450;DHT22;13349;50.984;5.822;2023-02-28T11:03:00;6.10;1.00
24450;DHT22;13349;50.984;5.822;2023-02-28T11:05:27;5.40;1.00
24450;DHT22;13349;50.984;5.822;2023-02-28T11:07:56;5.50;1.00
24450;DHT22;13349;50.984;5.822;2023-02-28T11:10:25;5.70;1.00
24450;DHT22;13349;50.984;5.822;2023-02-28T11:12:54;5.80;1.00
24450;DHT22;13349;50.984;5.822;2023-02-28T11:15:22;5.80;1.00
24450;DHT22;13349;50.984;5.822;2023-02-28T11:17:53;6.10;1.00
24450;DHT22;13349;50.984;5.822;2023-02-28T11:20:22;6.20;1.00
24450;DHT22;13349;50.984;5.822;2023-02-28T11:22:50;6.10;1.00
24450;DHT22;13349;50.984;5.822;2023-02-28T11:25:20;5.90;1.00
24450;DHT22;13349;50.984;5.822;2023-02-28T11:27:48;5.80;1.00
24450;DHT22;13349;50.984;5.822;2023-02-28T11:30:26;5.80;1.00
24450;DHT22;13349;50.984;5.822;2023-02-28T11:32:53;5.70;1.00
24450;DHT22;13349;50.984;5.822;2023-02-28T11:35:23;5.70;1.00
24450;DHT22;13349;50.984;5.822;2023-02-28T11:37:51;5.60;1.00
24450;DHT22;13349;50.984;5.822;2023-02-28T11:40:18;6.00;1.00
24450;DHT22;13349;50.984;5.822;2023-02-28T11:42:49;5.80;1.00
24450;DHT22;13349;50.984;5.822;2023-02-28T11:45:26;5.80;1.00
24450;DHT22;13349;50.984;5.822;2023-02-28T11:47:57;5.80;1.00
24450;DHT22;13349;50.984;5.822;2023-02-28T11:50:38;5.70;1.00
24450;DHT22;13349;50.984;5.822;2023-02-28T11:53:05;6.40;1.00
24450;DHT22;13349;50.984;5.822;2023-02-28T11:55:37;6.70;1.00
24450;DHT22;13349;50.984;5.822;2023-02-28T11:58:11;6.40;1.00
24450;DHT22;13349;50.984;5.822;2023-02-28T12:03:25;6.40;1.00
24450;DHT22;13349;50.984;5.822;2023-02-28T12:05:56;6.60;1.00
24450;DHT22;13349;50.984;5.822;2023-02-28T12:08:31;6.80;1.00
24450;DHT22;13349;50.984;5.822;2023-02-28T12:11:05;6.40;1.00
24450;DHT22;13349;50.984;5.822;2023-02-28T12:13:40;6.20;1.00
24450;DHT22;13349;50.984;5.822;2023-02-28T12:16:21;6.60;1.00
24450;DHT22;13349;50.984;5.822;2023-02-28T12:18:59;6.40;1.00
24450;DHT22;13349;50.984;5.822;2023-02-28T12:21:33;6.30;1.00
24450;DHT22;13349;50.984;5.822;2023-02-28T12:24:10;6.60;1.00
24450;DHT22;13349;50.984;5.822;2023-02-28T12:26:39;6.90;1.00
24450;DHT22;13349;50.984;5.822;2023-02-28T12:29:10;6.60;1.00
24450;DHT22;13349;50.984;5.822;2023-02-28T12:31:41;6.90;1.00
24450;DHT22;13349;50.984;5.822;2023-02-28T12:34:10;6.70;1.00
24450;DHT22;13349;50.984;5.822;2023-02-28T12:36:40;7.00;1.00
24450;DHT22;13349;50.984;5.822;2023-02-28T12:39:08;6.80;1.00
24450;DHT22;13349;50.984;5.822;2023-02-28T12:41:39;6.60;1.00
24450;DHT22;13349;50.984;5.822;2023-02-28T12:44:07;6.20;1.00
24450;DHT22;13349;50.984;5.822;2023-02-28T12:46:37;5.50;1.00
24450;DHT22;13349;50.984;5.822;2023-02-28T12:49:06;5.60;1.00
24450;DHT22;13349;50.984;5.822;2023-02-28T12:51:35;5.70;1.00
24450;DHT22;13349;50.984;5.822;2023-02-28T12:54:10;6.20;1.00
24450;DHT22;13349;50.984;5.822;2023-02-28T12:56:42;6.30;1.00
24450;DHT22;13349;50.984;5.822;2023-02-28T12:59:12;6.60;1.00
24450;DHT22;13349;50.984;5.822;2023-02-28T13:01:45;6.40;1.00
24450;DHT22;13349;50.984;5.822;2023-02-28T13:04:32;6.70;1.00
24450;DHT22;13349;50.984;5.822;2023-02-28T13:07:14;6.70;1.00
24450;DHT22;13349;50.984;5.822;2023-02-28T13:09:52;6.80;1.00
24450;DHT22;13349;50.984;5.822;2023-02-28T13:12:20;6.70;1.00
24450;DHT22;13349;50.984;5.822;2023-02-28T13:14:48;6.50;1.00
24450;DHT22;13349;50.984;5.822;2023-02-28T13:17:17;6.40;1.00
24450;DHT22;13349;50.984;5.822;2023-02-28T13:19:46;6.70;1.00
24450;DHT22;13349;50.984;5.822;2023-02-28T13:22:36;6.60;1.00
24450;DHT22;13349;50.984;5.822;2023-02-28T13:25:13;6.70;1.00
24450;DHT22;13349;50.984;5.822;2023-02-28T13:27:59;7.10;1.00
24450;DHT22;13349;50.984;5.822;2023-02-28T13:33:20;7.10;1.00
24450;DHT22;13349;50.984;5.822;2023-02-28T13:35:48;7.40;1.00
24450;DHT22;13349;50.984;5.822;2023-02-28T13:38:17;6.90;1.00
24450;DHT22;13349;50.984;5.822;2023-02-28T13:40:49;6.90;1.00
24450;DHT22;13349;50.984;5.822;2023-02-28T13:43:16;7.20;1.00
24450;DHT22;13349;50.984;5.822;2023-02-28T13:48:26;7.30;1.00
24450;DHT22;13349;50.984;5.822;2023-02-28T13:50:55;6.80;1.00
24450;DHT22;13349;50.984;5.822;2023-02-28T13:53:40;6.80;1.00
24450;DHT22;13349;50.984;5.822;2023-02-28T13:56:21;6.30;1.00
24450;DHT22;13349;50.984;5.822;2023-02-28T13:58:53;5.90;1.00
24450;DHT22;13349;50.984;5.822;2023-02-28T14:01:27;6.20;1.00
24450;DHT22;13349;50.984;5.822;2023-02-28T14:04:02;6.30;1.00
24450;DHT22;13349;50.984;5.822;2023-02-28T14:06:31;6.50;1.00
24450;DHT22;13349;50.984;5.822;2023-02-28T14:08:59;6.40;1.00
24450;DHT22;13349;50.984;5.822;2023-02-28T14:11:31;6.40;1.00
24450;DHT22;13349;50.984;5.822;2023-02-28T14:13:58;6.60;1.00
24450;DHT22;13349;50.984;5.822;2023-02-28T14:16:26;6.30;1.00
24450;DHT22;13349;50.984;5.822;2023-02-28T14:18:56;6.30;1.00
24450;DHT22;13349;50.984;5.822;2023-02-28T14:21:25;6.20;1.00
24450;DHT22;13349;50.984;5.822;2023-02-28T14:24:09;6.20;1.00
24450;DHT22;13349;50.984;5.822;2023-02-28T14:29:46;6.30;1.00
24450;DHT22;13349;50.984;5.822;2023-02-28T14:32:22;6.70;1.00
24450;DHT22;13349;50.984;5.822;2023-02-28T14:34:52;6.60;1.00
24450;DHT22;13349;50.984;5.822;2023-02-28T14:37:23;6.60;1.00
24450;DHT22;13349;50.984;5.822;2023-02-28T14:39:52;6.50;1.00
24450;DHT22;13349;50.984;5.822;2023-02-28T14:42:30;6.70;1.00
24450;DHT22;13349;50.984;5.822;2023-02-28T14:45:00;6.70;1.00
24450;DHT22;13349;50.984;5.822;2023-02-28T14:47:27;6.50;1.00
24450;DHT22;13349;50.984;5.822;2023-02-28T14:49:55;6.60;1.00
24450;DHT22;13349;50.984;5.822;2023-02-28T14:52:23;6.80;1.00
24450;DHT22;13349;50.984;5.822;2023-02-28T14:54:51;7.20;1.00
24450;DHT22;13349;50.984;5.822;2023-02-28T14:57:22;7.20;1.00
24450;DHT22;13349;50.984;5.822;2023-02-28T14:59:56;7.20;1.00
24450;DHT22;13349;50.984;5.822;2023-02-28T15:02:26;7.10;1.00
24450;DHT22;13349;50.984;5.822;2023-02-28T15:04:57;7.00;1.00
24450;DHT22;13349;50.984;5.822;2023-02-28T15:07:24;6.90;1.00
24450;DHT22;13349;50.984;5.822;2023-02-28T15:10:13;6.50;1.00
24450;DHT22;13349;50.984;5.822;2023-02-28T15:12:40;6.70;1.00
24450;DHT22;13349;50.984;5.822;2023-02-28T15:15:14;6.50;1.00
24450;DHT22;13349;50.984;5.822;2023-02-28T15:17:43;6.40;1.00
24450;DHT22;13349;50.984;5.822;2023-02-28T15:20:12;6.60;1.00
24450;DHT22;13349;50.984;5.822;2023-02-28T15:22:40;6.30;1.00
24450;DHT22;13349;50.984;5.822;2023-02-28T15:25:09;6.50;1.00
24450;DHT22;13349;50.984;5.822;2023-02-28T15:27:38;6.60;1.00
24450;DHT22;13349;50.984;5.822;2023-02-28T15:30:12;6.50;1.00
24450;DHT22;13349;50.984;5.822;2023-02-28T15:32:40;6.40;1.00
24450;DHT22;13349;50.984;5.822;2023-02-28T15:35:19;6.20;1.00
24450;DHT22;13349;50.984;5.822;2023-02-28T15:37:47;6.20;1.00
24450;DHT22;13349;50.984;5.822;2023-02-28T15:40:17;6.30;1.00
24450;DHT22;13349;50.984;5.822;2023-02-28T15:42:59;6.40;1.00
24450;DHT22;13349;50.984;5.822;2023-02-28T15:45:27;6.30;1.00
24450;DHT22;13349;50.984;5.822;2023-02-28T15:47:55;6.40;1.00
24450;DHT22;13349;50.984;5.822;2023-02-28T15:50:24;6.40;1.00
24450;DHT22;13349;50.984;5.822;2023-02-28T15:52:50;6.50;1.00
24450;DHT22;13349;50.984;5.822;2023-02-28T15:55:18;6.30;1.00
24450;DHT22;13349;50.984;5.822;2023-02-28T15:57:46;6.10;1.00
24450;DHT22;13349;50.984;5.822;2023-02-28T16:00:16;5.80;1.00
24450;DHT22;13349;50.984;5.822;2023-02-28T16:02:43;5.70;1.00
24450;DHT22;13349;50.984;5.822;2023-02-28T16:05:24;5.30;1.00
24450;DHT22;13349;50.984;5.822;2023-02-28T16:07:57;5.30;1.00
24450;DHT22;13349;50.984;5.822;2023-02-28T16:10:25;5.20;1.00
24450;DHT22;13349;50.984;5.822;2023-02-28T16:12:53;5.20;1.00
24450;DHT22;13349;50.984;5.822;2023-02-28T16:15:21;5.10;1.00
24450;DHT22;13349;50.984;5.822;2023-02-28T16:17:48;5.10;1.00
24450;DHT22;13349;50.984;5.822;2023-02-28T16:20:16;5.00;1.00
24450;DHT22;13349;50.984;5.822;2023-02-28T16:22:45;4.90;1.00
24450;DHT22;13349;50.984;5.822;2023-02-28T16:25:12;4.90;1.00